createdAt,value
2023-01-29T00:04:06.817Z,58.20
2023-01-29T00:07:08.398Z,64.30
2023-01-29T00:10:11.055Z,63.50
2023-01-29T00:13:13.607Z,58.60
2023-01-29T00:16:15.166Z,62.10
2023-01-29T00:19:16.804Z,63.00
2023-01-29T00:22:18.448Z,54.00
2023-01-29T00:25:20.053Z,50.10
2023-01-29T00:28:21.837Z,55.70
2023-01-29T00:31:24.779Z,47.00
2023-01-29T00:34:26.352Z,47.80
2023-01-29T00:37:28.000Z,43.70
2023-01-29T00:40:29.823Z,41.90
2023-01-29T00:46:32.956Z,39.90
2023-01-29T00:49:34.528Z,36.00
2023-01-29T00:52:36.551Z,39.70
2023-01-29T00:58:39.672Z,33.00
2023-01-29T01:01:41.467Z,33.80
2023-01-29T01:04:43.597Z,34.40
2023-01-29T01:10:59.159Z,33.90
2023-01-29T01:14:00.879Z,34.10
2023-01-29T01:17:02.657Z,34.30
2023-01-29T01:23:06.131Z,30.90
2023-01-29T01:26:11.027Z,30.80
2023-01-29T01:29:12.693Z,31.60
2023-01-29T01:35:16.155Z,29.20
2023-01-29T01:41:21.718Z,29.00
2023-01-29T01:44:52.796Z,30.40
2023-01-29T01:48:05.146Z,29.80
2023-01-29T01:51:06.779Z,30.90
2023-01-29T01:57:22.324Z,31.70
2023-01-29T02:00:25.546Z,30.60
2023-01-29T02:03:28.302Z,28.60
2023-01-29T02:06:30.697Z,28.20
2023-01-29T02:09:35.893Z,30.30
2023-01-29T02:12:38.329Z,29.10
2023-01-29T02:15:40.048Z,27.20
2023-01-29T02:18:41.613Z,27.60
2023-01-29T02:21:57.652Z,26.70
2023-01-29T02:25:08.469Z,29.70
2023-01-29T02:28:26.395Z,28.80
2023-01-29T02:31:31.068Z,27.90
2023-01-29T02:35:04.612Z,27.40
2023-01-29T02:38:18.537Z,27.50
2023-01-29T02:41:32.191Z,27.10
2023-01-29T02:44:44.192Z,25.80
2023-01-29T02:47:51.421Z,27.30
2023-01-29T02:50:59.155Z,28.10
2023-01-29T02:54:08.064Z,29.20
2023-01-29T02:57:22.204Z,29.90
2023-01-29T03:00:26.934Z,30.70
2023-01-29T03:03:36.151Z,28.20
2023-01-29T03:07:01.347Z,28.80
2023-01-29T03:10:06.904Z,29.30
2023-01-29T03:13:22.120Z,30.40
2023-01-29T03:16:29.901Z,30.60
2023-01-29T03:19:43.271Z,29.50
2023-01-29T03:22:50.138Z,31.00
2023-01-29T03:25:53.233Z,30.30
2023-01-29T03:28:54.821Z,36.40
2023-01-29T03:31:57.764Z,34.00
2023-01-29T03:35:03.666Z,37.40
2023-01-29T03:38:10.105Z,37.40
2023-01-29T03:41:20.845Z,38.70
2023-01-29T03:44:49.089Z,39.00
2023-01-29T03:48:09.379Z,38.60
2023-01-29T03:51:33.735Z,37.70
2023-01-29T03:54:45.713Z,41.20
2023-01-29T04:01:07.180Z,39.60
2023-01-29T04:04:15.608Z,41.10
2023-01-29T04:07:21.212Z,42.00
2023-01-29T04:10:25.601Z,40.70
2023-01-29T04:13:27.500Z,39.70
2023-01-29T04:19:31.464Z,42.60
2023-01-29T04:22:35.591Z,41.20
2023-01-29T04:25:47.569Z,36.30
2023-01-29T04:32:04.510Z,36.80
2023-01-29T04:35:33.223Z,34.00
2023-01-29T04:38:47.701Z,37.70
2023-01-29T04:41:59.986Z,38.90
2023-01-29T04:45:07.792Z,35.00
2023-01-29T04:48:43.826Z,38.50
2023-01-29T04:52:00.683Z,35.50
2023-01-29T04:55:23.813Z,34.60
2023-01-29T04:58:28.460Z,32.90
2023-01-29T05:01:31.443Z,32.40
2023-01-29T05:04:34.419Z,31.70
2023-01-29T05:07:37.752Z,34.50
2023-01-29T05:10:39.463Z,35.70
2023-01-29T05:13:42.227Z,37.00
2023-01-29T05:16:47.816Z,35.30
2023-01-29T05:19:49.464Z,36.30
2023-01-29T05:22:51.086Z,37.10
2023-01-29T05:25:52.736Z,40.90
2023-01-29T05:31:58.069Z,40.30
2023-01-29T05:34:59.731Z,38.80
2023-01-29T05:38:01.385Z,36.40
2023-01-29T05:41:02.976Z,35.30
2023-01-29T05:44:05.000Z,37.50
2023-01-29T05:47:06.565Z,36.90
2023-01-29T05:50:08.967Z,36.40
2023-01-29T05:53:10.560Z,37.30
2023-01-29T05:56:12.137Z,35.20
2023-01-29T05:59:15.500Z,35.20
2023-01-29T06:02:17.081Z,32.50
2023-01-29T06:05:18.771Z,35.90
2023-01-29T06:08:20.367Z,36.60
2023-01-29T06:14:23.949Z,34.70
2023-01-29T06:17:25.543Z,38.30
2023-01-29T06:20:27.235Z,37.60
2023-01-29T06:23:29.283Z,37.80
2023-01-29T06:26:30.819Z,36.00
2023-01-29T06:29:32.493Z,43.10
2023-01-29T06:32:34.345Z,38.60
2023-01-29T06:38:37.683Z,33.50
2023-01-29T06:44:40.708Z,31.00
2023-01-29T06:47:42.363Z,33.50
2023-01-29T06:50:44.047Z,32.60
2023-01-29T06:53:46.636Z,32.10
2023-01-29T06:56:48.526Z,37.10
2023-01-29T06:59:50.200Z,30.50
2023-01-29T07:02:51.865Z,33.20
2023-01-29T07:05:53.512Z,34.80
2023-01-29T07:08:55.431Z,37.10
2023-01-29T07:11:57.010Z,34.90
2023-01-29T07:14:58.594Z,32.50
2023-01-29T07:18:01.978Z,28.20
2023-01-29T07:21:07.055Z,33.60
2023-01-29T07:24:09.033Z,30.20
2023-01-29T07:30:12.772Z,43.20
2023-01-29T07:33:14.523Z,29.10
2023-01-29T07:39:17.517Z,28.00
2023-01-29T07:42:19.204Z,27.10
2023-01-29T07:45:20.926Z,29.90
2023-01-29T07:48:22.544Z,26.60
2023-01-29T07:51:24.112Z,23.20
2023-01-29T07:54:25.754Z,23.00
2023-01-29T07:57:27.500Z,24.90
2023-01-29T08:00:30.958Z,22.80
2023-01-29T08:03:32.786Z,24.40
2023-01-29T08:09:36.444Z,24.80
2023-01-29T08:12:38.118Z,29.10
2023-01-29T08:15:45.936Z,29.10
2023-01-29T08:18:47.598Z,28.50
2023-01-29T08:21:49.278Z,32.00
2023-01-29T08:24:54.367Z,31.00
2023-01-29T08:28:01.662Z,26.20
2023-01-29T08:34:04.900Z,24.30
2023-01-29T08:37:06.511Z,23.60
2023-01-29T08:40:08.963Z,21.40
2023-01-29T08:43:12.136Z,24.90
2023-01-29T08:46:13.758Z,24.00
2023-01-29T08:52:17.094Z,19.90
2023-01-29T08:55:19.006Z,20.90
2023-01-29T08:58:20.983Z,18.50
2023-01-29T09:04:24.448Z,29.40
2023-01-29T09:10:27.765Z,20.40
2023-01-29T09:16:31.342Z,18.90
2023-01-29T09:19:32.914Z,17.60
2023-01-29T09:22:35.626Z,16.30
2023-01-29T09:25:37.761Z,16.70
2023-01-29T09:28:39.604Z,19.00
2023-01-29T09:34:42.819Z,19.00
2023-01-29T09:37:48.055Z,23.20
2023-01-29T09:40:53.316Z,22.30
2023-01-29T09:44:14.056Z,24.20
2023-01-29T09:47:17.294Z,21.80
2023-01-29T09:50:38.619Z,21.20
2023-01-29T09:53:58.167Z,23.40
2023-01-29T09:57:00.703Z,22.10
2023-01-29T10:00:02.544Z,21.40
2023-01-29T10:03:24.208Z,23.60
2023-01-29T10:06:47.590Z,22.60
2023-01-29T10:10:15.568Z,22.30
2023-01-29T10:13:46.451Z,24.80
2023-01-29T10:17:17.490Z,22.80
2023-01-29T10:20:46.485Z,24.10
2023-01-29T10:23:51.238Z,25.50
2023-01-29T10:26:53.796Z,23.50
2023-01-29T10:29:56.163Z,24.10
2023-01-29T10:33:02.511Z,23.70
2023-01-29T10:36:08.661Z,25.20
2023-01-29T10:39:18.432Z,23.00
2023-01-29T10:42:31.756Z,22.60
2023-01-29T10:45:43.843Z,25.00
2023-01-29T10:49:05.210Z,26.70
2023-01-29T10:52:27.198Z,28.80
2023-01-29T10:55:34.526Z,24.80
2023-01-29T10:58:41.617Z,24.30
2023-01-29T11:01:43.370Z,26.70
2023-01-29T11:07:48.359Z,26.90
2023-01-29T11:11:04.661Z,25.00
2023-01-29T11:14:13.708Z,28.30
2023-01-29T11:17:20.504Z,25.30
2023-01-29T11:20:27.504Z,30.10
2023-01-29T11:23:33.747Z,31.00
2023-01-29T11:26:38.692Z,32.20
2023-01-29T11:29:45.575Z,30.90
2023-01-29T11:32:52.647Z,30.50
2023-01-29T11:35:54.313Z,28.30
2023-01-29T11:39:14.025Z,29.60
2023-01-29T11:42:22.816Z,29.80
2023-01-29T11:45:28.752Z,33.90
2023-01-29T11:48:43.927Z,33.20
2023-01-29T11:51:52.602Z,35.00
2023-01-29T11:54:59.757Z,36.20
2023-01-29T11:58:01.255Z,36.00
2023-01-29T12:01:03.152Z,33.80
2023-01-29T12:07:14.390Z,37.80
2023-01-29T12:10:41.353Z,38.30
2023-01-29T12:13:43.034Z,36.60
2023-01-29T12:17:06.835Z,35.00
2023-01-29T12:20:16.002Z,36.50
2023-01-29T12:23:42.198Z,38.80
2023-01-29T12:26:50.976Z,31.00
2023-01-29T12:29:59.802Z,28.00
2023-01-29T12:33:11.304Z,28.90
2023-01-29T12:36:19.744Z,28.90
2023-01-29T12:39:21.901Z,32.70
2023-01-29T12:42:24.550Z,26.90
2023-01-29T12:45:27.937Z,28.00
2023-01-29T12:48:33.848Z,27.80
2023-01-29T12:51:40.043Z,31.30
2023-01-29T12:54:48.313Z,28.00
2023-01-29T12:57:52.853Z,32.50
2023-01-29T13:00:56.519Z,28.80
2023-01-29T13:04:15.094Z,28.30
2023-01-29T13:07:20.831Z,30.30
2023-01-29T13:10:28.471Z,33.30
2023-01-29T13:13:41.111Z,29.90
2023-01-29T13:16:46.163Z,34.50
2023-01-29T13:19:51.235Z,29.50
2023-01-29T13:22:54.923Z,30.40
2023-01-29T13:25:57.091Z,30.20
2023-01-29T13:28:58.760Z,28.80
2023-01-29T13:32:02.490Z,27.70
2023-01-29T13:35:13.280Z,29.30
2023-01-29T13:38:25.591Z,30.20
2023-01-29T13:41:42.560Z,32.10
2023-01-29T13:44:48.740Z,31.00
2023-01-29T13:47:51.775Z,32.20
2023-01-29T13:51:00.652Z,29.10
2023-01-29T13:54:06.715Z,31.90
2023-01-29T13:57:37.187Z,31.00
2023-01-29T14:00:38.773Z,36.00
2023-01-29T14:04:03.341Z,32.80
2023-01-29T14:07:43.629Z,30.40
2023-01-29T14:10:45.245Z,31.20
2023-01-29T14:13:48.626Z,33.10
2023-01-29T14:16:50.280Z,33.20
2023-01-29T14:20:18.879Z,31.50
2023-01-29T14:23:34.820Z,33.90
2023-01-29T14:26:39.258Z,30.00
2023-01-29T14:29:41.688Z,30.80
2023-01-29T14:32:47.226Z,31.40
2023-01-29T14:35:52.730Z,32.80
2023-01-29T14:38:54.515Z,34.20
2023-01-29T14:45:20.076Z,35.20
2023-01-29T14:48:39.471Z,33.40
2023-01-29T14:51:43.429Z,34.00
2023-01-29T14:54:46.411Z,36.90
2023-01-29T14:57:49.141Z,35.10
2023-01-29T15:00:54.367Z,37.80
2023-01-29T15:04:07.367Z,36.50
2023-01-29T15:07:09.450Z,36.70
2023-01-29T15:10:22.851Z,34.60
2023-01-29T15:13:37.465Z,36.80
2023-01-29T15:16:51.430Z,32.00
2023-01-29T15:19:53.056Z,33.60
2023-01-29T15:22:54.587Z,34.80
2023-01-29T15:26:01.186Z,33.90
2023-01-29T15:29:04.691Z,35.40
2023-01-29T15:32:07.052Z,36.70
2023-01-29T15:35:11.879Z,37.60
2023-01-29T15:38:22.102Z,36.60
2023-01-29T15:41:23.735Z,37.90
2023-01-29T15:44:25.319Z,35.90
2023-01-29T15:47:31.330Z,37.20
2023-01-29T15:50:35.950Z,37.10
2023-01-29T15:53:42.421Z,37.10
2023-01-29T15:56:47.280Z,35.40
2023-01-29T15:59:49.206Z,33.60
2023-01-29T16:02:50.987Z,37.30
2023-01-29T16:05:52.880Z,38.00
2023-01-29T16:11:58.396Z,41.40
2023-01-29T16:15:02.464Z,35.00
2023-01-29T16:18:25.703Z,34.60
2023-01-29T16:21:35.159Z,34.40
2023-01-29T16:24:37.236Z,33.10
2023-01-29T16:27:38.886Z,41.10
2023-01-29T16:30:40.575Z,35.60
2023-01-29T16:33:43.895Z,39.70
2023-01-29T16:36:46.801Z,35.70
2023-01-29T16:39:49.534Z,37.70
2023-01-29T16:43:06.327Z,41.20
2023-01-29T16:46:23.527Z,37.50
2023-01-29T16:49:31.405Z,38.90
2023-01-29T16:52:34.482Z,40.20
2023-01-29T16:55:41.413Z,41.00
2023-01-29T16:58:49.964Z,40.50
2023-01-29T17:01:51.514Z,41.30
2023-01-29T17:04:57.492Z,40.70
2023-01-29T17:07:59.831Z,44.30
2023-01-29T17:11:01.739Z,42.20
2023-01-29T17:14:05.407Z,43.40
2023-01-29T17:17:15.086Z,40.00
2023-01-29T17:20:17.031Z,42.40
2023-01-29T17:23:19.396Z,44.50
2023-01-29T17:26:21.237Z,48.40
2023-01-29T17:29:28.203Z,41.40
2023-01-29T17:32:44.041Z,43.70
2023-01-29T17:35:46.916Z,46.60
2023-01-29T17:38:48.607Z,43.80
2023-01-29T17:41:52.832Z,41.70
2023-01-29T17:44:54.504Z,47.10
2023-01-29T17:47:56.210Z,45.90
2023-01-29T17:51:02.287Z,47.60
2023-01-29T17:54:04.067Z,46.30
2023-01-29T17:57:05.732Z,44.90
2023-01-29T18:00:16.014Z,46.60
2023-01-29T18:03:18.276Z,49.00
2023-01-29T18:06:29.778Z,48.70
2023-01-29T18:09:31.374Z,44.40
2023-01-29T18:12:32.980Z,49.80
2023-01-29T18:15:34.694Z,43.10
2023-01-29T18:18:36.311Z,43.50
2023-01-29T18:21:37.916Z,43.60
2023-01-29T18:24:40.201Z,44.90
2023-01-29T18:27:41.948Z,47.00
2023-01-29T18:30:47.240Z,43.10
2023-01-29T18:33:49.362Z,45.20
2023-01-29T18:36:50.935Z,44.40
2023-01-29T18:39:52.563Z,41.30
2023-01-29T18:42:54.156Z,41.90
2023-01-29T18:45:59.001Z,40.30
2023-01-29T18:49:00.848Z,40.40
2023-01-29T18:55:04.458Z,42.80
2023-01-29T19:01:27.581Z,39.50
2023-01-29T19:04:29.289Z,41.00
2023-01-29T19:10:33.467Z,38.30
2023-01-29T19:13:36.411Z,42.80
2023-01-29T19:16:38.279Z,45.50
2023-01-29T19:22:41.407Z,44.70
2023-01-29T19:25:42.997Z,47.60
2023-01-29T19:28:44.769Z,47.40
2023-01-29T19:31:47.078Z,45.70
2023-01-29T19:34:48.714Z,44.10
2023-01-29T19:37:50.282Z,45.30
2023-01-29T19:40:52.189Z,44.00
2023-01-29T19:43:53.874Z,49.80
2023-01-29T19:46:55.431Z,47.90
2023-01-29T19:49:57.016Z,46.80
2023-01-29T19:52:58.606Z,46.90
2023-01-29T19:56:18.709Z,52.20
2023-01-29T19:59:20.723Z,53.00
2023-01-29T20:02:22.338Z,54.90
2023-01-29T20:08:25.603Z,50.40
2023-01-29T20:11:27.245Z,50.40
2023-01-29T20:14:28.862Z,51.80
2023-01-29T20:17:30.529Z,50.20
2023-01-29T20:20:32.861Z,51.70
2023-01-29T20:23:38.099Z,51.30
2023-01-29T20:26:40.658Z,53.30
2023-01-29T20:29:42.188Z,49.70
2023-01-29T20:32:43.844Z,48.00
2023-01-29T20:35:45.468Z,53.40
2023-01-29T20:38:47.097Z,50.10
2023-01-29T20:41:48.808Z,50.20
2023-01-29T20:44:50.350Z,55.00
2023-01-29T20:47:51.923Z,53.10
2023-01-29T20:50:54.068Z,51.80
2023-01-29T20:53:55.675Z,54.80
2023-01-29T20:59:59.034Z,55.10
2023-01-29T21:03:00.611Z,60.80
2023-01-29T21:06:02.167Z,56.60
2023-01-29T21:09:03.860Z,58.00
2023-01-29T21:12:05.654Z,59.70
2023-01-29T21:15:07.939Z,58.90
2023-01-29T21:18:09.984Z,62.50
2023-01-29T21:21:11.567Z,57.30
2023-01-29T21:24:13.238Z,56.30
2023-01-29T21:27:15.311Z,53.20
2023-01-29T21:30:17.777Z,59.40
2023-01-29T21:33:19.619Z,60.90
2023-01-29T21:36:21.356Z,60.70
2023-01-29T21:39:23.177Z,56.70
2023-01-29T21:45:26.330Z,60.90
2023-01-29T21:48:27.861Z,58.10
2023-01-29T21:51:29.627Z,59.40
2023-01-29T21:54:31.335Z,59.40
2023-01-29T21:57:33.271Z,58.90
2023-01-29T22:00:35.181Z,58.30
2023-01-29T22:03:36.829Z,58.80
2023-01-29T22:06:38.438Z,61.20
2023-01-29T22:09:40.176Z,60.20
2023-01-29T22:12:41.994Z,55.80
2023-01-29T22:15:43.675Z,57.00
2023-01-29T22:18:45.220Z,59.20
2023-01-29T22:21:46.787Z,57.10
2023-01-29T22:24:48.440Z,58.40
2023-01-29T22:27:50.002Z,60.60
2023-01-29T22:30:51.631Z,61.10
2023-01-29T22:33:53.346Z,59.60
2023-01-29T22:36:54.951Z,60.60
2023-01-29T22:39:56.541Z,58.90
2023-01-29T22:42:58.092Z,62.10
2023-01-29T22:45:59.786Z,60.20
2023-01-29T22:49:01.579Z,61.60
2023-01-29T22:52:03.200Z,66.90
2023-01-29T22:55:12.460Z,63.30
2023-01-29T22:58:14.056Z,59.50
2023-01-29T23:01:18.828Z,64.80
2023-01-29T23:04:20.712Z,65.90
2023-01-29T23:07:22.444Z,64.10
2023-01-29T23:10:24.086Z,62.80
2023-01-29T23:13:25.705Z,66.10
2023-01-29T23:16:28.295Z,67.20
2023-01-29T23:19:29.961Z,66.90
2023-01-29T23:22:31.579Z,65.40
2023-01-29T23:25:33.189Z,70.90
2023-01-29T23:28:34.776Z,67.80
2023-01-29T23:31:36.514Z,65.10
2023-01-29T23:34:38.197Z,67.40
2023-01-29T23:37:39.748Z,71.30
2023-01-29T23:40:41.338Z,72.50
2023-01-29T23:43:42.983Z,69.20
2023-01-29T23:46:44.682Z,72.70
2023-01-29T23:49:46.167Z,75.50
2023-01-29T23:52:47.885Z,71.40
2023-01-29T23:55:57.587Z,71.80
2023-01-29T23:58:59.252Z,80.00
